sensor_id;sensor_type;location;lat;lon;timestamp;pressure;altitude;pressure_sealevel;temperature;humidity
29941;BME280;16801;53.562;10.038;2022-10-19T00:01:51;102658.50;;;13.04;82.19
29941;BME280;16801;53.562;10.038;2022-10-19T00:05:11;102654.66;;;12.94;82.55
29941;BME280;16801;53.562;10.038;2022-10-19T00:08:34;102656.06;;;13.00;82.26
29941;BME280;16801;53.562;10.038;2022-10-19T00:11:54;102671.25;;;13.02;82.20
29941;BME280;16801;53.562;10.038;2022-10-19T00:15:15;102662.69;;;12.96;82.42
29941;BME280;16801;53.562;10.038;2022-10-19T00:18:37;102663.34;;;12.99;82.65
29941;BME280;16801;53.562;10.038;2022-10-19T00:21:57;102669.13;;;13.07;82.06
29941;BME280;16801;53.562;10.038;2022-10-19T00:25:19;102671.03;;;12.93;82.33
29941;BME280;16801;53.562;10.038;2022-10-19T00:28:40;102673.34;;;13.11;82.28
29941;BME280;16801;53.562;10.038;2022-10-19T00:32:01;102672.59;;;13.09;82.13
29941;BME280;16801;53.562;10.038;2022-10-19T00:35:22;102678.84;;;12.97;82.08
29941;BME280;16801;53.562;10.038;2022-10-19T00:38:42;102682.50;;;12.96;82.56
29941;BME280;16801;53.562;10.038;2022-10-19T00:42:05;102684.00;;;13.00;81.95
29941;BME280;16801;53.562;10.038;2022-10-19T00:45:26;102687.72;;;12.99;82.01
29941;BME280;16801;53.562;10.038;2022-10-19T00:48:46;102689.75;;;12.96;82.16
29941;BME280;16801;53.562;10.038;2022-10-19T00:52:09;102697.91;;;13.08;81.43
29941;BME280;16801;53.562;10.038;2022-10-19T00:55:32;102689.28;;;13.16;80.61
29941;BME280;16801;53.562;10.038;2022-10-19T00:58:54;102696.84;;;13.11;80.92
29941;BME280;16801;53.562;10.038;2022-10-19T01:02:15;102696.19;;;13.07;80.30
29941;BME280;16801;53.562;10.038;2022-10-19T01:05:37;102690.91;;;13.06;80.83
29941;BME280;16801;53.562;10.038;2022-10-19T01:08:58;102692.72;;;13.05;80.04
29941;BME280;16801;53.562;10.038;2022-10-19T01:12:29;102689.78;;;13.08;79.15
29941;BME280;16801;53.562;10.038;2022-10-19T01:16:03;102686.94;;;12.84;79.40
29941;BME280;16801;53.562;10.038;2022-10-19T01:19:53;102690.97;;;13.04;79.21
29941;BME280;16801;53.562;10.038;2022-10-19T01:23:33;102693.94;;;13.14;78.54
29941;BME280;16801;53.562;10.038;2022-10-19T01:27:18;102683.72;;;13.17;78.53
29941;BME280;16801;53.562;10.038;2022-10-19T01:30:48;102688.28;;;13.17;78.83
29941;BME280;16801;53.562;10.038;2022-10-19T01:34:15;102682.22;;;13.13;78.92
29941;BME280;16801;53.562;10.038;2022-10-19T01:37:42;102680.56;;;12.98;79.13
29941;BME280;16801;53.562;10.038;2022-10-19T01:41:14;102684.69;;;13.04;79.73
29941;BME280;16801;53.562;10.038;2022-10-19T01:44:40;102694.53;;;12.92;80.34
29941;BME280;16801;53.562;10.038;2022-10-19T01:48:07;102697.56;;;13.00;80.21
29941;BME280;16801;53.562;10.038;2022-10-19T01:51:32;102694.72;;;13.02;79.47
29941;BME280;16801;53.562;10.038;2022-10-19T01:54:55;102688.78;;;12.97;79.84
29941;BME280;16801;53.562;10.038;2022-10-19T01:58:20;102695.59;;;13.02;79.49
29941;BME280;16801;53.562;10.038;2022-10-19T02:01:45;102692.63;;;13.07;79.62
29941;BME280;16801;53.562;10.038;2022-10-19T02:05:10;102694.44;;;13.06;79.30
29941;BME280;16801;53.562;10.038;2022-10-19T02:08:37;102687.28;;;12.93;79.58
29941;BME280;16801;53.562;10.038;2022-10-19T02:12:02;102691.69;;;12.94;78.27
29941;BME280;16801;53.562;10.038;2022-10-19T02:15:25;102691.25;;;12.87;78.08
29941;BME280;16801;53.562;10.038;2022-10-19T02:18:50;102686.50;;;12.91;77.31
29941;BME280;16801;53.562;10.038;2022-10-19T02:22:13;102682.94;;;12.90;77.54
29941;BME280;16801;53.562;10.038;2022-10-19T02:25:34;102685.63;;;12.90;77.17
29941;BME280;16801;53.562;10.038;2022-10-19T02:28:56;102685.31;;;12.95;76.93
29941;BME280;16801;53.562;10.038;2022-10-19T02:32:17;102687.91;;;12.96;76.63
29941;BME280;16801;53.562;10.038;2022-10-19T02:35:38;102681.84;;;12.93;76.27
29941;BME280;16801;53.562;10.038;2022-10-19T02:39:01;102678.16;;;12.94;76.28
29941;BME280;16801;53.562;10.038;2022-10-19T02:42:27;102686.28;;;12.94;76.15
29941;BME280;16801;53.562;10.038;2022-10-19T02:45:55;102694.63;;;12.91;75.96
29941;BME280;16801;53.562;10.038;2022-10-19T02:49:20;102694.84;;;12.88;74.98
29941;BME280;16801;53.562;10.038;2022-10-19T02:52:41;102696.56;;;12.76;75.39
29941;BME280;16801;53.562;10.038;2022-10-19T02:56:05;102686.59;;;12.76;74.98
29941;BME280;16801;53.562;10.038;2022-10-19T02:59:26;102686.69;;;12.75;74.10
29941;BME280;16801;53.562;10.038;2022-10-19T03:02:47;102688.66;;;12.85;73.03
29941;BME280;16801;53.562;10.038;2022-10-19T03:06:08;102698.63;;;12.85;73.22
29941;BME280;16801;53.562;10.038;2022-10-19T03:09:29;102693.75;;;12.90;73.25
29941;BME280;16801;53.562;10.038;2022-10-19T03:12:51;102692.81;;;12.91;72.20
29941;BME280;16801;53.562;10.038;2022-10-19T03:16:12;102694.75;;;12.89;72.08
29941;BME280;16801;53.562;10.038;2022-10-19T03:19:34;102705.88;;;12.84;72.62
29941;BME280;16801;53.562;10.038;2022-10-19T03:22:54;102701.22;;;12.87;72.30
29941;BME280;16801;53.562;10.038;2022-10-19T03:26:16;102714.34;;;12.93;71.63
29941;BME280;16801;53.562;10.038;2022-10-19T03:29:38;102713.69;;;12.76;70.36
29941;BME280;16801;53.562;10.038;2022-10-19T03:32:59;102723.75;;;12.74;71.45
29941;BME280;16801;53.562;10.038;2022-10-19T03:36:22;102731.06;;;12.72;71.78
29941;BME280;16801;53.562;10.038;2022-10-19T03:39:43;102725.56;;;12.74;71.32
29941;BME280;16801;53.562;10.038;2022-10-19T03:43:04;102731.28;;;12.69;72.04
29941;BME280;16801;53.562;10.038;2022-10-19T03:46:27;102722.25;;;12.56;72.94
29941;BME280;16801;53.562;10.038;2022-10-19T03:49:48;102719.69;;;12.67;72.03
29941;BME280;16801;53.562;10.038;2022-10-19T03:53:09;102729.91;;;12.76;71.59
29941;BME280;16801;53.562;10.038;2022-10-19T03:56:32;102732.19;;;12.82;71.69
29941;BME280;16801;53.562;10.038;2022-10-19T03:59:52;102735.75;;;12.83;71.66
29941;BME280;16801;53.562;10.038;2022-10-19T04:03:14;102743.97;;;12.81;72.27
29941;BME280;16801;53.562;10.038;2022-10-19T04:06:37;102744.22;;;12.78;72.34
29941;BME280;16801;53.562;10.038;2022-10-19T04:09:58;102744.72;;;12.71;73.07
29941;BME280;16801;53.562;10.038;2022-10-19T04:13:19;102756.81;;;12.65;72.62
29941;BME280;16801;53.562;10.038;2022-10-19T04:16:40;102758.47;;;12.68;72.62
29941;BME280;16801;53.562;10.038;2022-10-19T04:20:02;102756.22;;;12.74;71.93
29941;BME280;16801;53.562;10.038;2022-10-19T04:23:26;102762.28;;;12.78;72.43
29941;BME280;16801;53.562;10.038;2022-10-19T04:26:49;102762.38;;;12.76;72.72
29941;BME280;16801;53.562;10.038;2022-10-19T04:30:10;102757.06;;;12.75;71.71
29941;BME280;16801;53.562;10.038;2022-10-19T04:33:31;102760.22;;;12.81;72.06
29941;BME280;16801;53.562;10.038;2022-10-19T04:36:54;102761.09;;;12.82;72.14
29941;BME280;16801;53.562;10.038;2022-10-19T04:40:17;102763.22;;;12.77;72.53
29941;BME280;16801;53.562;10.038;2022-10-19T04:43:38;102766.41;;;12.83;72.44
29941;BME280;16801;53.562;10.038;2022-10-19T04:46:59;102757.94;;;12.75;71.97
29941;BME280;16801;53.562;10.038;2022-10-19T04:50:20;102763.81;;;12.82;72.44
29941;BME280;16801;53.562;10.038;2022-10-19T04:53:45;102771.78;;;12.71;72.72
29941;BME280;16801;53.562;10.038;2022-10-19T04:57:06;102767.13;;;12.73;72.31
29941;BME280;16801;53.562;10.038;2022-10-19T05:00:27;102767.44;;;12.68;72.57
29941;BME280;16801;53.562;10.038;2022-10-19T05:03:52;102773.22;;;12.76;73.15
29941;BME280;16801;53.562;10.038;2022-10-19T05:07:13;102772.78;;;12.82;72.83
29941;BME280;16801;53.562;10.038;2022-10-19T05:10:36;102766.28;;;12.85;72.81
29941;BME280;16801;53.562;10.038;2022-10-19T05:13:57;102769.22;;;12.82;72.56
29941;BME280;16801;53.562;10.038;2022-10-19T05:17:18;102769.88;;;12.85;72.88
29941;BME280;16801;53.562;10.038;2022-10-19T05:20:39;102778.75;;;12.88;73.40
29941;BME280;16801;53.562;10.038;2022-10-19T05:23:59;102774.84;;;12.92;73.04
29941;BME280;16801;53.562;10.038;2022-10-19T05:27:21;102773.34;;;12.88;72.99
29941;BME280;16801;53.562;10.038;2022-10-19T05:30:42;102769.88;;;12.85;73.67
29941;BME280;16801;53.562;10.038;2022-10-19T05:34:03;102771.69;;;12.85;73.50
29941;BME280;16801;53.562;10.038;2022-10-19T05:37:24;102772.13;;;12.79;73.46
29941;BME280;16801;53.562;10.038;2022-10-19T05:40:45;102772.56;;;12.85;73.93
29941;BME280;16801;53.562;10.038;2022-10-19T05:44:13;102769.75;;;12.87;74.66
29941;BME280;16801;53.562;10.038;2022-10-19T05:47:34;102764.72;;;12.95;74.01
29941;BME280;16801;53.562;10.038;2022-10-19T05:50:55;102762.09;;;12.94;73.21
29941;BME280;16801;53.562;10.038;2022-10-19T05:54:16;102768.44;;;12.80;73.44
29941;BME280;16801;53.562;10.038;2022-10-19T05:57:37;102763.69;;;12.83;72.68
29941;BME280;16801;53.562;10.038;2022-10-19T06:01:00;102765.44;;;12.84;73.10
29941;BME280;16801;53.562;10.038;2022-10-19T06:04:21;102769.22;;;12.82;73.11
29941;BME280;16801;53.562;10.038;2022-10-19T06:07:42;102770.75;;;12.86;73.55
29941;BME280;16801;53.562;10.038;2022-10-19T06:11:04;102776.34;;;12.83;74.01
29941;BME280;16801;53.562;10.038;2022-10-19T06:14:26;102778.84;;;12.86;73.60
29941;BME280;16801;53.562;10.038;2022-10-19T06:17:49;102787.28;;;12.81;73.80
29941;BME280;16801;53.562;10.038;2022-10-19T06:21:11;102782.97;;;12.92;74.12
29941;BME280;16801;53.562;10.038;2022-10-19T06:24:32;102781.91;;;12.94;73.81
29941;BME280;16801;53.562;10.038;2022-10-19T06:27:53;102770.88;;;12.97;73.62
29941;BME280;16801;53.562;10.038;2022-10-19T06:31:15;102773.91;;;12.93;73.60
29941;BME280;16801;53.562;10.038;2022-10-19T06:34:37;102772.91;;;12.94;74.62
29941;BME280;16801;53.562;10.038;2022-10-19T06:37:59;102779.44;;;12.91;74.27
29941;BME280;16801;53.562;10.038;2022-10-19T06:41:19;102778.50;;;13.05;74.21
29941;BME280;16801;53.562;10.038;2022-10-19T06:44:40;102770.19;;;13.20;73.24
29941;BME280;16801;53.562;10.038;2022-10-19T06:48:01;102775.50;;;13.34;72.88
29941;BME280;16801;53.562;10.038;2022-10-19T06:51:24;102773.88;;;13.44;72.75
29941;BME280;16801;53.562;10.038;2022-10-19T06:54:45;102772.38;;;13.66;71.94
29941;BME280;16801;53.562;10.038;2022-10-19T06:58:06;102774.75;;;13.83;71.82
29941;BME280;16801;53.562;10.038;2022-10-19T07:01:27;102784.09;;;13.41;72.29
29941;BME280;16801;53.562;10.038;2022-10-19T07:04:48;102783.31;;;13.39;72.44
29941;BME280;16801;53.562;10.038;2022-10-19T07:08:10;102788.28;;;13.20;73.96
29941;BME280;16801;53.562;10.038;2022-10-19T07:11:31;102794.59;;;13.33;73.91
29941;BME280;16801;53.562;10.038;2022-10-19T07:14:52;102789.19;;;13.45;73.88
29941;BME280;16801;53.562;10.038;2022-10-19T07:18:14;102793.16;;;13.40;73.68
29941;BME280;16801;53.562;10.038;2022-10-19T07:21:35;102797.94;;;13.49;73.51
29941;BME280;16801;53.562;10.038;2022-10-19T07:25:01;102802.81;;;13.56;73.29
29941;BME280;16801;53.562;10.038;2022-10-19T07:28:22;102809.13;;;13.57;72.56
29941;BME280;16801;53.562;10.038;2022-10-19T07:31:43;102812.59;;;13.59;72.29
29941;BME280;16801;53.562;10.038;2022-10-19T07:35:04;102812.91;;;13.54;72.41
29941;BME280;16801;53.562;10.038;2022-10-19T07:38:26;102814.41;;;13.58;72.20
29941;BME280;16801;53.562;10.038;2022-10-19T07:41:49;102824.19;;;13.61;71.32
29941;BME280;16801;53.562;10.038;2022-10-19T07:45:11;102819.41;;;13.64;71.98
29941;BME280;16801;53.562;10.038;2022-10-19T07:48:32;102826.34;;;13.69;71.58
29941;BME280;16801;53.562;10.038;2022-10-19T07:51:53;102828.97;;;13.70;71.66
29941;BME280;16801;53.562;10.038;2022-10-19T07:55:14;102837.94;;;13.71;70.67
29941;BME280;16801;53.562;10.038;2022-10-19T07:58:37;102831.31;;;13.87;70.96
29941;BME280;16801;53.562;10.038;2022-10-19T08:01:58;102837.63;;;13.75;70.76
29941;BME280;16801;53.562;10.038;2022-10-19T08:05:21;102831.56;;;13.84;70.28
29941;BME280;16801;53.562;10.038;2022-10-19T08:08:42;102835.97;;;13.98;69.87
29941;BME280;16801;53.562;10.038;2022-10-19T08:12:03;102828.81;;;14.09;69.74
29941;BME280;16801;53.562;10.038;2022-10-19T08:15:27;102834.88;;;14.13;69.83
29941;BME280;16801;53.562;10.038;2022-10-19T08:18:49;102833.88;;;14.26;69.21
29941;BME280;16801;53.562;10.038;2022-10-19T08:22:10;102835.28;;;14.45;68.05
29941;BME280;16801;53.562;10.038;2022-10-19T08:25:31;102842.22;;;14.49;68.45
29941;BME280;16801;53.562;10.038;2022-10-19T08:28:52;102842.09;;;14.50;67.41
29941;BME280;16801;53.562;10.038;2022-10-19T08:32:14;102844.88;;;14.61;66.51
29941;BME280;16801;53.562;10.038;2022-10-19T08:35:35;102849.84;;;14.67;67.49
29941;BME280;16801;53.562;10.038;2022-10-19T08:38:56;102850.81;;;14.79;66.98
29941;BME280;16801;53.562;10.038;2022-10-19T08:42:20;102858.00;;;15.14;66.17
29941;BME280;16801;53.562;10.038;2022-10-19T08:45:47;102859.41;;;15.31;65.18
29941;BME280;16801;53.562;10.038;2022-10-19T08:49:18;102858.34;;;15.68;64.04
29941;BME280;16801;53.562;10.038;2022-10-19T08:52:40;102858.34;;;15.79;64.33
29941;BME280;16801;53.562;10.038;2022-10-19T08:56:17;102855.66;;;16.02;63.41
29941;BME280;16801;53.562;10.038;2022-10-19T08:59:43;102861.38;;;16.54;63.03
29941;BME280;16801;53.562;10.038;2022-10-19T09:03:13;102859.75;;;16.18;62.00
29941;BME280;16801;53.562;10.038;2022-10-19T09:06:54;102857.84;;;15.74;63.57
29941;BME280;16801;53.562;10.038;2022-10-19T09:10:21;102872.91;;;15.67;63.26
29941;BME280;16801;53.562;10.038;2022-10-19T09:13:46;102867.16;;;16.05;63.35
29941;BME280;16801;53.562;10.038;2022-10-19T09:17:11;102869.00;;;16.05;63.41
29941;BME280;16801;53.562;10.038;2022-10-19T09:20:36;102871.13;;;16.12;63.57
29941;BME280;16801;53.562;10.038;2022-10-19T09:24:04;102878.78;;;16.07;61.69
29941;BME280;16801;53.562;10.038;2022-10-19T09:27:28;102880.34;;;15.87;62.69
29941;BME280;16801;53.562;10.038;2022-10-19T09:30:53;102878.34;;;15.67;62.96
29941;BME280;16801;53.562;10.038;2022-10-19T09:34:20;102878.28;;;16.02;62.19
29941;BME280;16801;53.562;10.038;2022-10-19T09:37:45;102867.38;;;16.46;60.21
29941;BME280;16801;53.562;10.038;2022-10-19T09:41:14;102880.75;;;16.27;62.09
29941;BME280;16801;53.562;10.038;2022-10-19T09:44:36;102876.69;;;16.22;62.52
29941;BME280;16801;53.562;10.038;2022-10-19T09:47:59;102880.00;;;16.03;62.57
29941;BME280;16801;53.562;10.038;2022-10-19T09:51:20;102865.41;;;18.16;56.69
29941;BME280;16801;53.562;10.038;2022-10-19T09:54:42;102871.06;;;17.53;57.38
29941;BME280;16801;53.562;10.038;2022-10-19T09:58:15;102871.28;;;16.98;58.98
29941;BME280;16801;53.562;10.038;2022-10-19T10:01:38;102877.63;;;16.87;59.83
29941;BME280;16801;53.562;10.038;2022-10-19T10:05:04;102875.44;;;16.48;61.23
29941;BME280;16801;53.562;10.038;2022-10-19T10:08:29;102877.81;;;16.08;62.07
29941;BME280;16801;53.562;10.038;2022-10-19T10:11:52;102887.31;;;15.91;62.53
29941;BME280;16801;53.562;10.038;2022-10-19T10:15:18;102880.41;;;16.10;61.27
29941;BME280;16801;53.562;10.038;2022-10-19T10:18:50;102880.50;;;16.19;60.84
29941;BME280;16801;53.562;10.038;2022-10-19T10:22:23;102872.56;;;15.94;61.22
29941;BME280;16801;53.562;10.038;2022-10-19T10:25:47;102885.16;;;15.62;61.11
29941;BME280;16801;53.562;10.038;2022-10-19T10:29:19;102888.47;;;15.42;62.28
29941;BME280;16801;53.562;10.038;2022-10-19T10:32:46;102892.69;;;15.35;63.37
29941;BME280;16801;53.562;10.038;2022-10-19T10:36:08;102890.41;;;15.52;61.44
29941;BME280;16801;53.562;10.038;2022-10-19T10:39:29;102895.34;;;15.47;61.18
29941;BME280;16801;53.562;10.038;2022-10-19T10:42:51;102891.25;;;15.98;60.14
29941;BME280;16801;53.562;10.038;2022-10-19T10:46:15;102878.91;;;22.07;47.00
29941;BME280;16801;53.562;10.038;2022-10-19T10:49:41;102877.91;;;27.56;34.28
29941;BME280;16801;53.562;10.038;2022-10-19T10:53:06;102868.78;;;29.72;28.84
29941;BME280;16801;53.562;10.038;2022-10-19T10:56:28;102876.78;;;30.65;28.04
29941;BME280;16801;53.562;10.038;2022-10-19T10:59:55;102872.28;;;31.15;26.67
29941;BME280;16801;53.562;10.038;2022-10-19T11:03:21;102868.59;;;30.77;26.83
29941;BME280;16801;53.562;10.038;2022-10-19T11:06:50;102862.16;;;32.08;24.95
29941;BME280;16801;53.562;10.038;2022-10-19T11:10:22;102858.84;;;32.36;24.65
29941;BME280;16801;53.562;10.038;2022-10-19T11:13:50;102849.28;;;32.25;24.17
29941;BME280;16801;53.562;10.038;2022-10-19T11:17:17;102851.94;;;32.74;23.58
29941;BME280;16801;53.562;10.038;2022-10-19T11:20:54;102848.84;;;32.64;23.00
29941;BME280;16801;53.562;10.038;2022-10-19T11:24:23;102846.81;;;31.36;23.65
29941;BME280;16801;53.562;10.038;2022-10-19T11:27:56;102843.91;;;32.78;22.83
29941;BME280;16801;53.562;10.038;2022-10-19T11:31:25;102834.75;;;33.71;22.07
29941;BME280;16801;53.562;10.038;2022-10-19T11:34:59;102834.75;;;34.52;20.41
29941;BME280;16801;53.562;10.038;2022-10-19T11:38:37;102829.56;;;33.98;21.20
29941;BME280;16801;53.562;10.038;2022-10-19T11:42:08;102821.91;;;35.24;20.01
29941;BME280;16801;53.562;10.038;2022-10-19T11:45:44;102822.38;;;29.66;25.53
29941;BME280;16801;53.562;10.038;2022-10-19T11:49:15;102819.09;;;28.09;28.38
29941;BME280;16801;53.562;10.038;2022-10-19T11:52:51;102804.56;;;28.07;29.08
29941;BME280;16801;53.562;10.038;2022-10-19T11:56:18;102797.63;;;30.86;25.43
29941;BME280;16801;53.562;10.038;2022-10-19T12:00:03;102800.34;;;27.14;29.97
29941;BME280;16801;53.562;10.038;2022-10-19T12:03:48;102794.00;;;27.20;29.52
29941;BME280;16801;53.562;10.038;2022-10-19T12:07:31;102773.06;;;31.08;23.88
29941;BME280;16801;53.562;10.038;2022-10-19T12:11:00;102770.44;;;31.87;22.27
29941;BME280;16801;53.562;10.038;2022-10-19T12:14:26;102782.03;;;31.66;22.84
29941;BME280;16801;53.562;10.038;2022-10-19T12:17:55;102772.78;;;27.82;27.06
29941;BME280;16801;53.562;10.038;2022-10-19T12:21:22;102780.19;;;25.01;31.74
29941;BME280;16801;53.562;10.038;2022-10-19T12:24:44;102772.91;;;24.54;33.93
29941;BME280;16801;53.562;10.038;2022-10-19T12:28:05;102770.91;;;22.57;36.57
29941;BME280;16801;53.562;10.038;2022-10-19T12:31:27;102767.59;;;22.03;38.04
29941;BME280;16801;53.562;10.038;2022-10-19T12:34:56;102754.03;;;22.02;38.33
29941;BME280;16801;53.562;10.038;2022-10-19T12:38:28;102756.53;;;21.62;38.68
29941;BME280;16801;53.562;10.038;2022-10-19T12:42:00;102757.88;;;21.32;39.16
29941;BME280;16801;53.562;10.038;2022-10-19T12:45:25;102763.41;;;21.83;38.44
29941;BME280;16801;53.562;10.038;2022-10-19T12:52:49;102763.22;;;21.59;37.76
29941;BME280;16801;53.562;10.038;2022-10-19T12:56:15;102750.44;;;21.24;38.92
29941;BME280;16801;53.562;10.038;2022-10-19T12:59:37;102749.03;;;20.67;40.41
29941;BME280;16801;53.562;10.038;2022-10-19T13:03:00;102744.53;;;20.04;41.28
29941;BME280;16801;53.562;10.038;2022-10-19T13:06:31;102750.56;;;19.05;42.49
29941;BME280;16801;53.562;10.038;2022-10-19T13:10:00;102741.78;;;19.21;43.08
29941;BME280;16801;53.562;10.038;2022-10-19T13:13:52;102730.34;;;19.91;42.11
29941;BME280;16801;53.562;10.038;2022-10-19T13:17:37;102732.97;;;20.10;40.87
29941;BME280;16801;53.562;10.038;2022-10-19T13:20:59;102742.50;;;19.23;42.22
29941;BME280;16801;53.562;10.038;2022-10-19T13:24:34;102743.56;;;19.59;42.32
29941;BME280;16801;53.562;10.038;2022-10-19T13:27:59;102745.84;;;18.79;43.92
29941;BME280;16801;53.562;10.038;2022-10-19T13:31:22;102742.66;;;18.64;44.73
29941;BME280;16801;53.562;10.038;2022-10-19T13:34:44;102729.94;;;18.34;45.63
29941;BME280;16801;53.562;10.038;2022-10-19T13:38:19;102733.38;;;18.27;45.30
29941;BME280;16801;53.562;10.038;2022-10-19T13:41:50;102726.19;;;18.26;45.87
29941;BME280;16801;53.562;10.038;2022-10-19T13:45:21;102735.44;;;18.44;45.05
29941;BME280;16801;53.562;10.038;2022-10-19T13:52:45;102729.03;;;19.58;43.28
29941;BME280;16801;53.562;10.038;2022-10-19T13:56:28;102731.59;;;18.56;45.54
29941;BME280;16801;53.562;10.038;2022-10-19T14:00:10;102722.16;;;18.30;46.14
29941;BME280;16801;53.562;10.038;2022-10-19T14:03:49;102721.19;;;18.41;46.10
29941;BME280;16801;53.562;10.038;2022-10-19T14:07:16;102723.16;;;19.53;42.34
29941;BME280;16801;53.562;10.038;2022-10-19T14:10:40;102715.91;;;20.79;39.67
29941;BME280;16801;53.562;10.038;2022-10-19T14:14:17;102719.63;;;21.30;37.80
29941;BME280;16801;53.562;10.038;2022-10-19T14:17:40;102718.19;;;22.85;34.60
29941;BME280;16801;53.562;10.038;2022-10-19T14:21:06;102714.88;;;23.62;32.95
29941;BME280;16801;53.562;10.038;2022-10-19T14:24:29;102720.06;;;24.04;32.78
29941;BME280;16801;53.562;10.038;2022-10-19T14:27:56;102715.47;;;24.27;32.13
29941;BME280;16801;53.562;10.038;2022-10-19T14:31:21;102709.06;;;23.41;34.64
29941;BME280;16801;53.562;10.038;2022-10-19T14:34:43;102700.97;;;23.48;33.83
29941;BME280;16801;53.562;10.038;2022-10-19T14:38:07;102706.25;;;23.57;34.21
29941;BME280;16801;53.562;10.038;2022-10-19T14:41:35;102688.78;;;23.18;35.16
29941;BME280;16801;53.562;10.038;2022-10-19T14:45:00;102691.03;;;23.07;35.17
29941;BME280;16801;53.562;10.038;2022-10-19T14:48:21;102699.66;;;21.20;38.91
29941;BME280;16801;53.562;10.038;2022-10-19T14:51:44;102692.56;;;20.22;39.60
29941;BME280;16801;53.562;10.038;2022-10-19T14:55:15;102700.47;;;18.28;44.96
29941;BME280;16801;53.562;10.038;2022-10-19T14:58:40;102704.28;;;17.58;46.78
29941;BME280;16801;53.562;10.038;2022-10-19T15:02:12;102700.91;;;17.24;47.68
29941;BME280;16801;53.562;10.038;2022-10-19T15:05:35;102701.72;;;16.94;48.09
29941;BME280;16801;53.562;10.038;2022-10-19T15:09:01;102692.16;;;17.00;49.30
29941;BME280;16801;53.562;10.038;2022-10-19T15:12:28;102685.97;;;16.98;50.13
29941;BME280;16801;53.562;10.038;2022-10-19T15:15:50;102692.63;;;16.84;50.21
29941;BME280;16801;53.562;10.038;2022-10-19T15:19:17;102692.22;;;16.89;53.21
29941;BME280;16801;53.562;10.038;2022-10-19T15:22:39;102689.16;;;16.82;52.29
29941;BME280;16801;53.562;10.038;2022-10-19T15:26:02;102682.78;;;16.72;52.70
29941;BME280;16801;53.562;10.038;2022-10-19T15:29:28;102686.34;;;16.52;50.89
29941;BME280;16801;53.562;10.038;2022-10-19T15:32:51;102681.63;;;16.11;51.64
29941;BME280;16801;53.562;10.038;2022-10-19T15:36:14;102683.75;;;15.96;51.06
29941;BME280;16801;53.562;10.038;2022-10-19T15:39:37;102689.09;;;15.76;50.18
29941;BME280;16801;53.562;10.038;2022-10-19T15:42:58;102685.50;;;15.42;50.69
29941;BME280;16801;53.562;10.038;2022-10-19T15:46:22;102688.38;;;15.63;49.71
29941;BME280;16801;53.562;10.038;2022-10-19T15:49:53;102680.34;;;15.50;49.82
29941;BME280;16801;53.562;10.038;2022-10-19T15:53:14;102678.84;;;15.35;49.67
29941;BME280;16801;53.562;10.038;2022-10-19T15:56:37;102670.28;;;15.40;49.44
29941;BME280;16801;53.562;10.038;2022-10-19T16:00:00;102675.25;;;15.23;50.76
29941;BME280;16801;53.562;10.038;2022-10-19T16:03:25;102668.56;;;15.16;51.23
29941;BME280;16801;53.562;10.038;2022-10-19T16:06:46;102669.53;;;15.04;51.01
29941;BME280;16801;53.562;10.038;2022-10-19T16:10:10;102677.50;;;14.84;51.65
29941;BME280;16801;53.562;10.038;2022-10-19T16:13:34;102673.91;;;14.72;52.16
29941;BME280;16801;53.562;10.038;2022-10-19T16:16:55;102671.94;;;14.74;52.11
29941;BME280;16801;53.562;10.038;2022-10-19T16:20:17;102677.84;;;14.68;52.55
29941;BME280;16801;53.562;10.038;2022-10-19T16:23:38;102676.38;;;14.40;53.01
29941;BME280;16801;53.562;10.038;2022-10-19T16:26:59;102675.44;;;14.53;52.90
29941;BME280;16801;53.562;10.038;2022-10-19T16:30:20;102683.34;;;14.56;52.79
29941;BME280;16801;53.562;10.038;2022-10-19T16:33:41;102677.31;;;14.28;54.04
29941;BME280;16801;53.562;10.038;2022-10-19T16:37:03;102683.78;;;14.38;53.26
29941;BME280;16801;53.562;10.038;2022-10-19T16:40:24;102683.50;;;14.30;53.99
29941;BME280;16801;53.562;10.038;2022-10-19T16:43:45;102670.16;;;14.15;54.43
29941;BME280;16801;53.562;10.038;2022-10-19T16:47:07;102677.41;;;14.03;54.46
29941;BME280;16801;53.562;10.038;2022-10-19T16:50:28;102668.88;;;13.84;54.95
29941;BME280;16801;53.562;10.038;2022-10-19T16:53:51;102675.59;;;13.91;54.17
29941;BME280;16801;53.562;10.038;2022-10-19T16:57:12;102671.47;;;13.86;54.19
29941;BME280;16801;53.562;10.038;2022-10-19T17:00:34;102666.50;;;13.80;54.62
29941;BME280;16801;53.562;10.038;2022-10-19T17:03:55;102677.72;;;13.62;55.27
29941;BME280;16801;53.562;10.038;2022-10-19T17:07:17;102685.09;;;13.48;55.32
29941;BME280;16801;53.562;10.038;2022-10-19T17:10:39;102682.63;;;13.45;55.22
29941;BME280;16801;53.562;10.038;2022-10-19T17:14:02;102684.34;;;13.46;55.27
29941;BME280;16801;53.562;10.038;2022-10-19T17:17:25;102687.50;;;13.52;55.10
29941;BME280;16801;53.562;10.038;2022-10-19T17:20:45;102686.75;;;13.38;55.78
29941;BME280;16801;53.562;10.038;2022-10-19T17:24:10;102680.25;;;13.40;55.74
29941;BME280;16801;53.562;10.038;2022-10-19T17:27:33;102682.22;;;13.38;55.56
29941;BME280;16801;53.562;10.038;2022-10-19T17:30:54;102677.28;;;13.56;55.63
29941;BME280;16801;53.562;10.038;2022-10-19T17:34:16;102679.59;;;13.62;58.56
29941;BME280;16801;53.562;10.038;2022-10-19T17:37:38;102686.41;;;13.55;55.94
29941;BME280;16801;53.562;10.038;2022-10-19T17:41:07;102684.69;;;13.41;55.98
29941;BME280;16801;53.562;10.038;2022-10-19T17:44:30;102684.50;;;13.19;56.69